Time;durP1;ratioP1;P1;durP2;ratioP2;P2;SDS_P1;SDS_P2;PMS_P1;PMS_P2;Temp;Humidity;BMP_temperature;BMP_pressure;BME280_temperature;BME280_humidity;BME280_pressure;Samples;Min_cycle;Max_cycle;Signal;HPM_P1;HPM_P2
2022/07/19 00:00:46;;;;;;;4.20;1.70;;;;;;;21.53;66.89;98918.97;4992205;28;20187;-70
2022/07/19 00:03:16;;;;;;;2.35;1.70;;;;;;;21.23;67.92;98917.75;4996713;28;20805;-69
2022/07/19 00:05:43;;;;;;;2.67;1.40;;;;;;;21.22;67.85;98916.06;4998142;28;20676;-69
2022/07/19 00:08:08;;;;;;;2.10;1.65;;;;;;;21.19;68.20;98907.66;4998929;28;20675;-69
2022/07/19 00:10:34;;;;;;;1.73;1.60;;;;;;;21.22;68.46;98904.72;4998743;28;20185;-69
2022/07/19 00:12:59;;;;;;;1.88;1.77;;;;;;;20.86;70.03;98908.50;4996694;28;20187;-69
2022/07/19 00:15:24;;;;;;;4.07;1.67;;;;;;;21.06;69.72;98904.66;4999285;28;20635;-69
2022/07/19 00:17:50;;;;;;;1.90;1.80;;;;;;;21.31;68.27;98906.38;5006274;28;20214;-69
2022/07/19 00:20:19;;;;;;;1.80;1.70;;;;;;;21.18;68.94;98903.38;4998912;28;20175;-69
2022/07/19 00:22:45;;;;;;;2.13;1.92;;;;;;;21.35;69.07;98915.63;5006982;28;20196;-69
2022/07/19 00:25:11;;;;;;;2.78;2.33;;;;;;;21.30;68.92;98902.94;4984724;28;20214;-69
2022/07/19 00:27:36;;;;;;;3.78;2.10;;;;;;;21.53;68.28;98908.44;4979058;28;20194;-69
2022/07/19 00:30:04;;;;;;;2.63;1.98;;;;;;;21.61;68.05;98905.81;4982635;28;20218;-70
2022/07/19 00:32:30;;;;;;;2.65;2.00;;;;;;;21.48;68.13;98881.75;5002336;28;20187;-69
2022/07/19 00:34:55;;;;;;;2.17;2.08;;;;;;;21.43;68.64;98899.84;5001858;28;20202;-69
2022/07/19 00:37:20;;;;;;;3.35;2.40;;;;;;;21.17;69.32;98902.59;4997229;28;20630;-69
2022/07/19 00:39:46;;;;;;;2.50;2.33;;;;;;;20.98;70.52;98902.00;4992393;28;20178;-69
2022/07/19 00:42:14;;;;;;;2.85;1.92;;;;;;;20.85;71.42;98891.03;4998475;28;20182;-69
2022/07/19 00:44:39;;;;;;;2.78;2.10;;;;;;;20.70;71.96;98895.25;4998505;28;20190;-68
2022/07/19 00:47:05;;;;;;;2.50;2.30;;;;;;;20.53;72.53;98885.63;4997166;28;20518;-69
2022/07/19 00:49:31;;;;;;;4.00;2.25;;;;;;;20.41;72.71;98886.88;4998816;28;20194;-69
2022/07/19 00:51:57;;;;;;;2.90;2.53;;;;;;;20.36;73.04;98889.97;4998472;28;20175;-70
2022/07/19 00:54:25;;;;;;;2.80;2.28;;;;;;;20.29;73.65;98882.84;4991429;28;20582;-69
2022/07/19 00:56:50;;;;;;;4.32;2.20;;;;;;;20.20;73.17;98868.00;5004360;28;20188;-68
2022/07/19 00:59:17;;;;;;;2.67;2.47;;;;;;;20.22;73.13;98882.63;4999171;28;20186;-70
2022/07/19 01:01:43;;;;;;;2.50;2.30;;;;;;;20.24;73.36;98885.13;4997369;28;20613;-69
2022/07/19 01:04:10;;;;;;;2.75;2.55;;;;;;;20.26;73.07;98878.72;5007640;28;20188;-70
2022/07/19 01:06:36;;;;;;;2.67;2.42;;;;;;;20.29;72.84;98885.47;5000265;28;20190;-68
2022/07/19 01:09:02;;;;;;;2.40;2.30;;;;;;;20.32;73.47;98875.47;4995453;28;20190;-69
2022/07/19 01:11:28;;;;;;;2.65;2.50;;;;;;;20.15;74.61;98865.00;4999159;28;20294;-69
2022/07/19 01:13:53;;;;;;;3.00;2.80;;;;;;;20.02;75.37;98875.06;4999425;28;20644;-68
2022/07/19 01:16:19;;;;;;;2.95;2.70;;;;;;;19.92;76.40;98861.19;5002760;28;20187;-68
2022/07/19 01:18:44;;;;;;;3.00;2.75;;;;;;;19.73;76.57;98863.97;5001020;28;20178;-69
2022/07/19 01:21:21;;;;;;;2.90;2.70;;;;;;;19.68;76.97;98866.22;4999801;28;20202;-69
2022/07/19 01:23:47;;;;;;;2.95;2.42;;;;;;;19.71;76.71;98865.94;5002488;28;20178;-67
2022/07/19 01:26:12;;;;;;;2.42;2.30;;;;;;;19.76;75.65;98859.25;4996447;28;20195;-69
2022/07/19 01:28:38;;;;;;;2.60;2.40;;;;;;;19.85;75.43;98857.53;4979532;28;20205;-70
2022/07/19 01:31:03;;;;;;;3.45;3.10;;;;;;;19.96;75.31;98866.00;4977937;28;20191;-69
2022/07/19 01:33:29;;;;;;;3.15;2.85;;;;;;;19.90;75.62;98865.78;4999898;28;20462;-68
2022/07/19 01:35:54;;;;;;;3.70;3.15;;;;;;;19.96;75.79;98865.16;4997982;28;20203;-69
2022/07/19 01:38:20;;;;;;;3.88;2.50;;;;;;;19.90;74.90;98871.03;4999482;28;20184;-69
2022/07/19 01:40:45;;;;;;;2.92;2.72;;;;;;;19.76;75.16;98871.56;4995903;28;20682;-69
2022/07/19 01:43:10;;;;;;;2.92;2.13;;;;;;;19.74;74.45;98876.13;4998814;28;20659;-68
2022/07/19 01:45:36;;;;;;;2.75;2.55;;;;;;;19.68;74.37;98874.09;5000798;28;20180;-68
2022/07/19 01:48:01;;;;;;;4.13;2.42;;;;;;;19.71;74.11;98876.44;4997546;28;20178;-69
2022/07/19 01:50:27;;;;;;;2.10;2.00;;;;;;;19.83;73.19;98875.25;4974887;28;20694;-69
2022/07/19 01:52:52;;;;;;;2.45;2.30;;;;;;;19.83;73.40;98876.06;4978508;28;20789;-69
2022/07/19 01:55:19;;;;;;;3.63;2.13;;;;;;;19.94;71.91;98877.63;4992578;28;20755;-69
2022/07/19 01:57:46;;;;;;;2.47;2.13;;;;;;;19.88;72.08;98878.25;5009697;28;20187;-69
2022/07/19 02:00:12;;;;;;;2.10;2.00;;;;;;;19.77;72.82;98881.91;4994136;28;20198;-69
2022/07/19 02:02:38;;;;;;;2.00;1.90;;;;;;;19.78;73.05;98865.19;4999046;28;20186;-69
2022/07/19 02:05:04;;;;;;;7.80;2.25;;;;;;;20.01;72.21;98876.88;4999655;28;20675;-69
2022/07/19 02:07:29;;;;;;;3.83;1.90;;;;;;;19.78;73.69;98885.38;5005909;28;20284;-69
2022/07/19 02:09:57;;;;;;;2.05;1.80;;;;;;;19.80;73.60;98888.66;4988696;28;20728;-70
2022/07/19 02:12:22;;;;;;;2.67;1.90;;;;;;;19.68;74.26;98887.25;4996055;28;20206;-69
2022/07/19 02:14:48;;;;;;;1.90;1.80;;;;;;;19.69;74.82;98888.91;4998089;28;20449;-70
2022/07/19 02:17:13;;;;;;;1.83;1.70;;;;;;;19.84;74.35;98888.22;5006960;28;20259;-69
2022/07/19 02:19:39;;;;;;;2.03;1.70;;;;;;;20.06;73.59;98882.50;4993813;28;20240;-69
2022/07/19 02:22:04;;;;;;;2.45;1.90;;;;;;;20.24;71.51;98890.38;4998853;28;20178;-70
2022/07/19 02:24:29;;;;;;;2.08;1.92;;;;;;;20.00;72.71;98874.41;4988341;28;20209;-71
2022/07/19 02:26:55;;;;;;;2.40;1.80;;;;;;;20.11;71.29;98866.31;5004470;28;20333;-70
2022/07/19 02:29:20;;;;;;;1.63;1.52;;;;;;;20.02;72.83;98891.66;4995485;28;20187;-71
2022/07/19 02:31:46;;;;;;;3.15;2.20;;;;;;;19.94;72.64;98894.19;4978192;28;20684;-70
2022/07/19 02:34:11;;;;;;;2.10;1.90;;;;;;;19.98;72.40;98894.72;4977048;28;20620;-70
2022/07/19 02:36:37;;;;;;;2.10;2.00;;;;;;;20.10;71.42;98904.88;4989842;28;20574;-70
2022/07/19 02:39:02;;;;;;;1.90;1.60;;;;;;;20.16;70.76;98911.34;5011768;28;20196;-70
2022/07/19 02:41:28;;;;;;;3.35;2.05;;;;;;;19.75;72.50;98911.94;5001538;28;20193;-70
2022/07/19 02:43:53;;;;;;;1.65;1.52;;;;;;;19.53;73.48;98907.13;4992511;28;20251;-70
2022/07/19 02:46:18;;;;;;;1.92;1.67;;;;;;;19.22;76.00;98905.78;5001102;28;20179;-70
2022/07/19 02:48:44;;;;;;;2.72;2.10;;;;;;;19.26;75.93;98910.63;5020441;28;20242;-70
2022/07/19 02:51:11;;;;;;;2.15;1.95;;;;;;;19.15;76.51;98899.44;4994113;28;20187;-70
2022/07/19 02:53:37;;;;;;;2.08;1.98;;;;;;;19.39;74.55;98889.25;4979239;28;20391;-70
2022/07/19 02:56:02;;;;;;;2.10;2.00;;;;;;;19.15;76.95;98900.28;4981016;28;20210;-69
2022/07/19 02:58:28;;;;;;;4.10;1.63;;;;;;;19.04;77.55;98902.25;4994478;28;20287;-70
2022/07/19 03:00:53;;;;;;;4.47;1.80;;;;;;;18.97;77.92;98909.06;5004037;28;20288;-69
2022/07/19 03:06:03;;;;;;;3.25;1.73;;;;;;;19.33;72.42;98895.94;5004766;28;20173;-70
2022/07/19 03:08:28;;;;;;;2.08;1.95;;;;;;;19.22;71.50;98906.63;4999164;28;20187;-69
2022/07/19 03:10:54;;;;;;;2.15;1.77;;;;;;;18.92;71.58;98906.88;5002589;28;20187;-70
2022/07/19 03:13:19;;;;;;;4.78;1.70;;;;;;;19.03;71.59;98918.97;4998207;28;20611;-69
2022/07/19 03:15:45;;;;;;;2.15;1.95;;;;;;;18.96;72.52;98916.13;4999447;28;20661;-69
2022/07/19 03:18:10;;;;;;;2.83;1.75;;;;;;;19.01;71.68;98920.94;5000468;28;20656;-69
2022/07/19 03:20:36;;;;;;;2.35;2.05;;;;;;;19.02;71.70;98914.72;4998676;28;20655;-70
2022/07/19 03:23:01;;;;;;;2.08;1.98;;;;;;;19.04;72.60;98915.38;4994024;28;20660;-69
2022/07/19 03:25:27;;;;;;;4.57;1.88;;;;;;;19.12;70.50;98918.13;4991675;28;20270;-70
2022/07/19 03:27:53;;;;;;;1.98;1.77;;;;;;;19.11;70.26;98909.41;4998206;28;20175;-69
2022/07/19 03:30:18;;;;;;;2.60;1.73;;;;;;;19.24;70.42;98914.34;4994641;28;20190;-69
2022/07/19 03:32:44;;;;;;;2.55;1.65;;;;;;;19.24;70.13;98901.22;5001693;28;20638;-70
2022/07/19 03:35:09;;;;;;;4.40;1.65;;;;;;;19.19;71.16;98913.94;4995176;28;20203;-70
2022/07/19 03:37:35;;;;;;;2.00;1.90;;;;;;;19.27;69.94;98909.63;4979221;28;20627;-70
2022/07/19 03:40:00;;;;;;;1.67;1.58;;;;;;;19.52;68.69;98919.41;4998806;28;20627;-70
2022/07/19 03:42:26;;;;;;;3.30;1.75;;;;;;;19.59;68.68;98911.78;4998075;28;20182;-69
2022/07/19 03:44:51;;;;;;;2.33;2.00;;;;;;;19.70;67.85;98922.06;5008338;28;20209;-70
2022/07/19 03:47:17;;;;;;;2.13;1.85;;;;;;;19.73;67.24;98916.50;5004467;28;20269;-70
2022/07/19 03:49:42;;;;;;;3.67;1.92;;;;;;;19.72;68.06;98922.72;4999539;28;20185;-70
2022/07/19 03:52:08;;;;;;;1.73;1.58;;;;;;;19.80;67.85;98922.81;4998407;28;20619;-70
2022/07/19 03:54:33;;;;;;;4.28;1.95;;;;;;;20.05;66.83;98927.31;4994134;28;20742;-68
2022/07/19 03:56:59;;;;;;;2.45;1.92;;;;;;;20.04;66.81;98918.59;4978909;28;20230;-69
2022/07/19 03:59:24;;;;;;;3.28;1.80;;;;;;;20.19;66.82;98924.16;4980531;28;20183;-70
2022/07/19 04:01:50;;;;;;;2.00;1.90;;;;;;;20.29;66.29;98919.66;4997110;28;20190;-69
2022/07/19 04:04:16;;;;;;;2.42;1.92;;;;;;;20.38;64.94;98934.47;4993005;28;20179;-70
2022/07/19 04:06:41;;;;;;;2.13;1.85;;;;;;;20.49;64.70;98931.59;5003485;28;20193;-70
2022/07/19 04:09:07;;;;;;;2.63;2.42;;;;;;;20.61;65.05;98930.38;5005917;28;20542;-68
2022/07/19 04:11:32;;;;;;;2.13;1.92;;;;;;;20.65;65.38;98929.09;4994476;28;20191;-68
2022/07/19 04:13:58;;;;;;;2.03;1.90;;;;;;;20.72;65.35;98933.56;4994368;28;20190;-69
2022/07/19 04:16:23;;;;;;;1.98;1.88;;;;;;;20.85;65.06;98935.75;4984527;28;20272;-68
2022/07/19 04:18:48;;;;;;;3.78;2.00;;;;;;;20.83;64.74;98927.22;4979048;28;20273;-69
2022/07/19 04:21:14;;;;;;;3.63;2.20;;;;;;;20.72;64.99;98927.47;4981286;28;20186;-69
2022/07/19 04:23:39;;;;;;;2.25;2.05;;;;;;;20.70;65.75;98929.44;5003072;28;20220;-69
2022/07/19 04:26:05;;;;;;;4.35;2.20;;;;;;;20.53;66.41;98928.53;5003371;28;20683;-68
2022/07/19 04:28:30;;;;;;;2.47;2.28;;;;;;;20.73;65.20;98929.13;4999329;28;20186;-69
2022/07/19 04:30:55;;;;;;;2.40;2.20;;;;;;;20.78;64.15;98932.13;4994045;28;20187;-69
2022/07/19 04:33:21;;;;;;;2.20;2.10;;;;;;;20.74;64.61;98930.81;5000928;28;20189;-69
2022/07/19 04:35:46;;;;;;;1.85;1.75;;;;;;;20.80;64.33;98930.19;5005134;28;20206;-70
2022/07/19 04:38:12;;;;;;;2.47;2.00;;;;;;;20.66;65.51;98934.19;4997865;28;20190;-70
2022/07/19 04:40:38;;;;;;;2.35;2.20;;;;;;;20.64;66.14;98933.50;4998701;28;20781;-70
2022/07/19 04:43:04;;;;;;;3.10;2.15;;;;;;;20.59;66.58;98932.34;4999722;28;20662;-70
2022/07/19 04:45:29;;;;;;;2.10;1.83;;;;;;;20.59;66.59;98940.22;4997627;28;20185;-70
2022/07/19 04:47:55;;;;;;;2.22;1.80;;;;;;;20.61;66.72;98938.25;4996062;28;20186;-70
2022/07/19 04:50:20;;;;;;;4.65;2.30;;;;;;;20.77;65.74;98930.47;5003945;28;20194;-69
2022/07/19 04:52:46;;;;;;;2.33;2.15;;;;;;;20.78;65.34;98932.97;5001224;28;20178;-69
2022/07/19 04:55:11;;;;;;;2.55;2.33;;;;;;;20.95;64.91;98940.00;4994138;28;20191;-70
2022/07/19 04:57:37;;;;;;;2.90;1.85;;;;;;;21.02;64.65;98937.53;5000823;28;20209;-65
2022/07/19 05:00:11;;;;;;;2.25;1.92;;;;;;;20.94;64.26;98940.97;4997636;28;20179;-70
2022/07/19 05:02:37;;;;;;;2.97;1.95;;;;;;;20.95;64.56;98936.50;4999740;28;20183;-70
2022/07/19 05:05:03;;;;;;;2.83;1.70;;;;;;;21.17;63.44;98939.44;5002082;28;20631;-69
2022/07/19 05:07:29;;;;;;;2.85;1.80;;;;;;;21.21;63.05;98935.47;4996335;28;20770;-70
2022/07/19 05:09:54;;;;;;;4.45;2.22;;;;;;;21.46;62.21;98941.66;5000376;28;20182;-69
2022/07/19 05:12:20;;;;;;;2.20;2.00;;;;;;;21.40;62.68;98939.66;4993337;28;20301;-69
2022/07/19 05:14:45;;;;;;;2.13;1.95;;;;;;;21.33;62.44;98943.94;4996591;28;20202;-69
2022/07/19 05:17:11;;;;;;;2.60;1.85;;;;;;;21.35;62.38;98947.22;4995876;28;20544;-69
2022/07/19 05:19:36;;;;;;;3.22;1.83;;;;;;;21.34;62.29;98942.94;5001680;28;20183;-69
2022/07/19 05:22:02;;;;;;;2.35;1.92;;;;;;;21.49;62.00;98936.06;4999179;28;20601;-70
2022/07/19 05:24:27;;;;;;;4.40;2.10;;;;;;;21.59;61.57;98947.28;5004178;28;20201;-69
2022/07/19 05:26:53;;;;;;;2.13;2.03;;;;;;;21.58;61.75;98945.66;4995263;28;20207;-70
2022/07/19 05:29:19;;;;;;;2.10;2.00;;;;;;;21.69;61.47;98940.09;4996073;28;20631;-70
2022/07/19 05:31:45;;;;;;;2.03;1.90;;;;;;;21.68;61.35;98927.94;5003480;28;20234;-68
2022/07/19 05:34:10;;;;;;;2.72;1.83;;;;;;;21.81;60.98;98941.44;4997805;28;20183;-69
2022/07/19 05:36:36;;;;;;;5.03;2.10;;;;;;;21.88;60.19;98939.81;5004277;28;20179;-70
2022/07/19 05:39:01;;;;;;;6.00;2.00;;;;;;;21.77;60.33;98935.69;4996374;28;20237;-69
2022/07/19 05:41:27;;;;;;;2.72;1.90;;;;;;;21.85;60.60;98940.16;4982147;28;20270;-69
2022/07/19 05:43:53;;;;;;;4.93;2.33;;;;;;;22.05;60.36;98952.00;4982103;28;20860;-69
2022/07/19 05:46:18;;;;;;;2.00;1.90;;;;;;;22.16;59.29;98949.06;5007347;28;20225;-69
2022/07/19 05:48:44;;;;;;;2.25;2.05;;;;;;;22.33;59.04;98950.69;4997787;28;20183;-69
2022/07/19 05:51:09;;;;;;;3.90;2.35;;;;;;;22.33;59.71;98946.22;5000553;28;20178;-69
2022/07/19 05:53:36;;;;;;;2.72;2.00;;;;;;;22.26;59.35;98952.34;5008662;28;20287;-69
2022/07/19 05:56:02;;;;;;;2.30;1.95;;;;;;;22.42;58.70;98952.31;5002893;28;20195;-68
2022/07/19 05:58:28;;;;;;;2.63;2.03;;;;;;;22.40;58.46;98959.59;4997540;28;20243;-69
2022/07/19 06:03:38;;;;;;;3.40;2.22;;;;;;;22.59;59.48;98961.91;4996366;28;20217;-69
2022/07/19 06:06:04;;;;;;;5.05;3.00;;;;;;;22.70;60.51;98958.94;4998252;28;20273;-69
2022/07/19 06:08:30;;;;;;;3.03;2.05;;;;;;;22.87;58.62;98963.19;4990544;28;20238;-69
2022/07/19 06:10:55;;;;;;;4.07;2.85;;;;;;;22.87;61.02;98964.03;5004906;28;20640;-69
2022/07/19 06:13:22;;;;;;;7.07;3.20;;;;;;;23.07;60.42;98962.63;5005941;28;20675;-68
2022/07/19 06:15:47;;;;;;;6.38;3.83;;;;;;;23.15;61.47;98946.78;5007053;28;20210;-69
2022/07/19 06:18:13;;;;;;;8.70;3.92;;;;;;;23.48;61.57;98973.91;5003746;28;20668;-69
2022/07/19 06:20:38;;;;;;;9.52;4.15;;;;;;;23.67;61.05;98962.91;4998210;28;20262;-70
2022/07/19 06:23:04;;;;;;;13.60;3.75;;;;;;;23.62;60.73;98970.50;4998917;28;20205;-69
2022/07/19 06:25:30;;;;;;;6.95;4.00;;;;;;;23.75;60.70;98966.31;4996141;28;20250;-69
2022/07/19 06:27:55;;;;;;;6.03;3.65;;;;;;;23.89;59.80;98965.59;5000719;28;20545;-69
2022/07/19 06:30:21;;;;;;;5.25;3.08;;;;;;;24.06;59.13;98968.97;5009295;28;20673;-69
2022/07/19 06:32:46;;;;;;;7.03;3.10;;;;;;;24.24;58.47;98975.59;5001662;28;20185;-69
2022/07/19 06:35:12;;;;;;;5.28;2.83;;;;;;;24.29;59.06;98971.41;4996929;28;20201;-69
2022/07/19 06:37:37;;;;;;;4.00;2.63;;;;;;;24.39;57.87;98964.03;5008925;28;20192;-69
2022/07/19 06:40:04;;;;;;;5.65;2.90;;;;;;;24.46;57.48;98970.28;5004138;28;20664;-69
2022/07/19 06:42:29;;;;;;;3.35;2.83;;;;;;;24.53;57.38;98960.63;4993376;28;20245;-69
2022/07/19 06:44:56;;;;;;;9.23;2.92;;;;;;;24.63;57.82;98961.22;4980468;28;20208;-70
2022/07/19 06:47:21;;;;;;;5.45;2.55;;;;;;;24.76;58.22;98963.22;5003183;28;20242;-69
2022/07/19 06:49:47;;;;;;;4.20;2.70;;;;;;;24.86;57.73;98962.00;5002395;28;20273;-69
2022/07/19 06:52:12;;;;;;;3.47;2.80;;;;;;;25.01;57.41;98960.16;4999074;28;20187;-69
2022/07/19 06:54:38;;;;;;;11.27;2.72;;;;;;;25.11;57.27;98955.41;4998344;28;20202;-69
2022/07/19 06:57:03;;;;;;;4.45;2.75;;;;;;;25.25;56.77;98953.78;4992919;28;20178;-69
2022/07/19 06:59:28;;;;;;;4.07;2.47;;;;;;;25.35;56.76;98949.84;4991336;28;20186;-69
2022/07/19 07:01:54;;;;;;;3.30;2.30;;;;;;;25.42;56.34;98955.25;5001244;28;20179;-69
2022/07/19 07:04:19;;;;;;;7.20;2.60;;;;;;;25.55;55.54;98945.59;4987443;28;20175;-69
2022/07/19 07:06:45;;;;;;;8.20;2.58;;;;;;;25.62;54.82;98959.78;4978467;28;20175;-69
2022/07/19 07:09:10;;;;;;;6.13;2.50;;;;;;;25.69;55.00;98950.06;4982332;28;20183;-69
2022/07/19 07:11:36;;;;;;;6.90;2.30;;;;;;;25.76;54.48;98944.81;4989385;28;20270;-69
2022/07/19 07:14:01;;;;;;;6.72;2.08;;;;;;;25.82;54.07;98941.41;4999164;28;20572;-69
2022/07/19 07:16:26;;;;;;;3.72;1.70;;;;;;;25.92;52.60;98945.44;4996592;28;20612;-69
2022/07/19 07:18:52;;;;;;;2.53;2.00;;;;;;;25.92;51.80;98945.44;5005056;28;20187;-69
2022/07/19 07:21:18;;;;;;;4.47;2.20;;;;;;;25.93;51.94;98947.06;5002065;28;20181;-69
2022/07/19 07:23:43;;;;;;;7.43;2.15;;;;;;;25.99;51.36;98950.78;5006838;28;20225;-69
2022/07/19 07:26:09;;;;;;;9.13;2.35;;;;;;;26.05;51.02;98950.88;4989004;28;20214;-70
2022/07/19 07:28:34;;;;;;;6.50;2.38;;;;;;;26.12;50.81;98948.28;4994757;28;20182;-69
2022/07/19 07:31:01;;;;;;;4.38;2.10;;;;;;;26.16;51.31;98946.88;5010555;28;20175;-69
2022/07/19 07:33:26;;;;;;;5.25;1.80;;;;;;;26.26;49.69;98950.03;4999394;28;20186;-69
2022/07/19 07:35:52;;;;;;;4.03;1.55;;;;;;;26.30;46.79;98944.16;4997856;28;20290;-69
2022/07/19 07:38:17;;;;;;;3.67;2.05;;;;;;;26.39;47.61;98947.50;5003291;28;20182;-69
2022/07/19 07:40:43;;;;;;;5.78;1.73;;;;;;;26.45;45.46;98952.88;5007829;28;20191;-69
2022/07/19 07:43:08;;;;;;;2.03;1.58;;;;;;;26.48;44.07;98951.66;5000877;28;20640;-69
2022/07/19 07:45:34;;;;;;;5.00;1.50;;;;;;;26.55;42.83;98953.38;5001638;28;20194;-70
2022/07/19 07:47:59;;;;;;;5.45;1.58;;;;;;;26.56;39.87;98954.19;4996006;28;20201;-69
2022/07/19 07:50:25;;;;;;;1.30;1.17;;;;;;;26.57;36.38;98955.84;4998031;28;20395;-70
2022/07/19 07:52:50;;;;;;;1.00;1.00;;;;;;;26.69;35.24;98962.25;5000999;28;20540;-70
2022/07/19 07:55:16;;;;;;;1.58;1.10;;;;;;;26.69;36.10;98960.44;4999115;28;20202;-70
2022/07/19 07:57:42;;;;;;;4.53;1.30;;;;;;;26.75;34.16;98954.34;5000083;28;20279;-69
2022/07/19 08:00:11;;;;;;;3.50;1.15;;;;;;;26.71;34.14;98960.25;4997510;28;20217;-69
2022/07/19 08:02:41;;;;;;;1.20;0.98;;;;;;;26.78;34.02;98961.09;5005783;28;20189;-69
2022/07/19 08:05:07;;;;;;;1.65;1.10;;;;;;;26.84;34.19;98963.81;5003677;28;20186;-70
2022/07/19 08:07:32;;;;;;;1.73;1.35;;;;;;;26.91;33.91;98956.72;4997811;28;20179;-69
2022/07/19 08:09:59;;;;;;;4.15;1.42;;;;;;;26.71;33.05;98953.09;4996382;28;20209;-69
2022/07/19 08:12:25;;;;;;;5.45;1.20;;;;;;;26.63;33.40;98955.06;5000323;28;20182;-70
2022/07/19 08:14:50;;;;;;;3.10;1.20;;;;;;;26.59;33.55;98948.50;5001242;28;20579;-69
2022/07/19 08:17:16;;;;;;;4.53;1.80;;;;;;;26.71;34.52;98947.75;5002845;28;20265;-69
2022/07/19 08:19:41;;;;;;;5.55;1.70;;;;;;;26.86;34.66;98951.16;5004592;28;20611;-69
2022/07/19 08:22:07;;;;;;;1.55;1.23;;;;;;;26.93;34.16;98954.66;4999466;28;20225;-69
2022/07/19 08:24:32;;;;;;;3.22;1.30;;;;;;;26.99;33.03;98956.53;5001194;28;20186;-69
2022/07/19 08:26:57;;;;;;;3.78;1.58;;;;;;;26.96;33.08;98951.63;5002574;28;20698;-69
2022/07/19 08:29:23;;;;;;;1.50;1.40;;;;;;;27.03;31.92;98951.66;5014270;28;20194;-70
2022/07/19 08:31:48;;;;;;;4.85;1.30;;;;;;;27.09;33.09;98949.03;4997626;28;20217;-70
2022/07/19 08:34:13;;;;;;;4.82;1.40;;;;;;;27.16;31.93;98951.75;4999393;28;20184;-70
2022/07/19 08:36:39;;;;;;;2.35;1.27;;;;;;;27.02;32.99;98924.28;5001553;28;20599;-69
2022/07/19 08:39:04;;;;;;;4.38;1.50;;;;;;;27.01;33.67;98929.78;5008616;28;20193;-69
2022/07/19 08:41:30;;;;;;;1.50;1.30;;;;;;;26.90;33.70;98941.78;4997120;28;20664;-69
2022/07/19 08:43:56;;;;;;;1.85;1.50;;;;;;;26.94;34.56;98940.38;4992091;28;20178;-69
2022/07/19 08:46:21;;;;;;;3.15;1.40;;;;;;;26.91;34.09;98938.13;4995348;28;20175;-70
2022/07/19 08:48:48;;;;;;;3.40;1.50;;;;;;;26.72;32.53;98935.31;4998194;28;20199;-69
2022/07/19 08:51:18;;;;;;;7.05;1.20;;;;;;;26.93;32.41;98946.69;4997933;28;20284;-70
2022/07/19 08:53:45;;;;;;;6.72;1.30;;;;;;;27.04;32.54;98937.34;5000669;28;20191;-69
2022/07/19 08:58:54;;;;;;;3.42;1.92;;;;;;;27.21;32.53;98936.03;4999168;28;20182;-69
2022/07/19 09:01:20;;;;;;;3.53;1.30;;;;;;;27.18;32.07;98933.78;5000997;28;20182;-69
2022/07/19 09:04:10;;;;;;;1.25;0.93;;;;;;;27.17;32.24;98924.19;5002455;28;20189;-69
2022/07/19 09:06:47;;;;;;;2.75;1.30;;;;;;;27.15;32.09;98924.34;5004034;28;20656;-69
2022/07/19 09:09:21;;;;;;;4.38;1.20;;;;;;;26.91;32.86;98911.53;4998980;28;20262;-69
2022/07/19 09:11:50;;;;;;;4.82;1.23;;;;;;;27.02;32.74;98926.94;4999073;28;20278;-69
2022/07/19 09:14:25;;;;;;;1.30;1.20;;;;;;;27.02;32.93;98924.28;4980628;28;20270;-69
2022/07/19 09:16:55;;;;;;;1.92;1.20;;;;;;;27.11;33.10;98903.69;5002402;28;20179;-69
2022/07/19 09:19:22;;;;;;;1.30;1.20;;;;;;;27.44;33.01;98924.09;5005006;28;20186;-69
2022/07/19 09:21:52;;;;;;;2.13;1.33;;;;;;;27.44;32.62;98905.47;5003044;28;20186;-69
2022/07/19 09:24:19;;;;;;;5.55;1.52;;;;;;;27.69;32.44;98919.88;5010407;28;20190;-69
2022/07/19 09:26:59;;;;;;;2.00;1.20;;;;;;;27.66;32.22;98922.94;4999128;28;20210;-69
2022/07/19 09:29:25;;;;;;;2.88;1.00;;;;;;;27.57;32.03;98925.97;4993361;28;20186;-70
2022/07/19 09:32:18;;;;;;;4.07;1.58;;;;;;;27.52;31.76;98925.75;4999948;28;20203;-70
2022/07/19 09:34:51;;;;;;;3.35;1.33;;;;;;;27.71;32.32;98920.50;4983690;28;20601;-69
2022/07/19 09:37:21;;;;;;;1.25;1.15;;;;;;;27.87;32.25;98916.66;4999581;28;20668;-69
2022/07/19 09:39:50;;;;;;;2.15;1.10;;;;;;;28.02;32.39;98912.81;5004393;28;20671;-69
2022/07/19 09:42:43;;;;;;;3.70;1.42;;;;;;;28.07;32.29;98902.38;4993393;28;20190;-70
2022/07/19 09:45:12;;;;;;;1.40;1.25;;;;;;;28.23;32.00;98909.94;5007510;28;20178;-70
2022/07/19 09:47:46;;;;;;;2.25;1.27;;;;;;;28.40;31.72;98905.88;5000810;28;20186;-69
2022/07/19 09:50:17;;;;;;;2.67;1.23;;;;;;;28.51;31.64;98918.56;4991966;28;20233;-69
2022/07/19 09:52:43;;;;;;;1.52;1.30;;;;;;;28.57;31.91;98908.94;4999143;28;20175;-69
2022/07/19 09:55:09;;;;;;;3.05;1.25;;;;;;;28.52;31.97;98893.56;4982351;28;20261;-70
2022/07/19 09:57:39;;;;;;;6.75;1.58;;;;;;;28.58;32.39;98913.25;4982849;28;20194;-69
2022/07/19 10:00:06;;;;;;;4.65;1.27;;;;;;;28.67;32.16;98917.31;4994717;28;20183;-69
2022/07/19 10:02:36;;;;;;;1.10;1.08;;;;;;;28.70;31.66;98911.59;4977480;28;20198;-69
2022/07/19 10:05:03;;;;;;;1.35;0.90;;;;;;;28.88;31.37;98915.25;4997698;28;20186;-70
2022/07/19 10:07:28;;;;;;;1.88;1.10;;;;;;;28.88;30.44;98914.41;5007714;28;20628;-69
2022/07/19 10:09:54;;;;;;;4.00;1.30;;;;;;;28.79;31.40;98910.34;4999937;28;20191;-70
2022/07/19 10:12:21;;;;;;;1.55;1.17;;;;;;;28.60;31.55;98905.84;4997752;28;20636;-69
2022/07/19 10:14:46;;;;;;;3.30;1.00;;;;;;;28.69;31.66;98902.75;4985782;28;20684;-70
2022/07/19 10:17:30;;;;;;;2.63;1.40;;;;;;;28.36;31.40;98893.97;4981784;28;20727;-70
2022/07/19 10:19:57;;;;;;;4.10;1.27;;;;;;;28.44;31.27;98891.13;5001207;28;20710;-69
2022/07/19 10:22:24;;;;;;;2.47;1.02;;;;;;;28.44;31.32;98883.13;5007900;28;20186;-69
2022/07/19 10:24:53;;;;;;;3.10;1.58;;;;;;;28.49;31.52;98883.34;5000749;28;20200;-68
2022/07/19 10:27:24;;;;;;;1.85;1.13;;;;;;;28.57;32.43;98875.13;4997119;28;20846;-69
2022/07/19 10:29:50;;;;;;;2.97;1.02;;;;;;;28.62;32.27;98883.31;5004260;28;20594;-69
2022/07/19 10:32:16;;;;;;;5.40;1.00;;;;;;;28.74;32.65;98849.69;4989616;28;20191;-69
2022/07/19 10:34:46;;;;;;;4.55;1.30;;;;;;;29.11;31.76;98872.13;4986563;28;20754;-69
2022/07/19 10:37:12;;;;;;;1.38;1.08;;;;;;;28.95;31.65;98878.75;4995405;28;20186;-70
2022/07/19 10:39:39;;;;;;;1.95;1.35;;;;;;;28.97;30.88;98868.69;4997495;28;20277;-70
2022/07/19 10:42:20;;;;;;;3.30;1.30;;;;;;;29.12;31.02;98863.94;5003005;28;20186;-70
2022/07/19 10:44:55;;;;;;;3.28;1.27;;;;;;;29.43;31.29;98861.31;5005873;28;20189;-69
2022/07/19 10:47:26;;;;;;;1.38;1.10;;;;;;;29.72;30.71;98874.09;4995936;28;20273;-69
2022/07/19 10:50:02;;;;;;;12.52;1.85;;;;;;;29.95;30.96;98871.69;4996978;28;20274;-69
2022/07/19 10:52:27;;;;;;;3.72;1.25;;;;;;;30.09;29.82;98878.56;4995668;28;20228;-69
2022/07/19 10:55:23;;;;;;;2.83;1.20;;;;;;;30.30;29.54;98866.69;4991318;28;20210;-69
2022/07/19 10:57:53;;;;;;;2.40;1.40;;;;;;;30.60;29.06;98868.47;4978203;28;20257;-69
2022/07/19 11:00:26;;;;;;;3.85;1.02;;;;;;;30.75;28.48;98863.63;4995611;28;20194;-69
2022/07/19 11:03:13;;;;;;;3.28;0.90;;;;;;;30.76;28.75;98857.22;5000598;28;20813;-70
2022/07/19 11:05:46;;;;;;;4.57;1.40;;;;;;;30.40;29.20;98848.31;5006338;28;20193;-69
2022/07/19 11:08:12;;;;;;;2.05;1.13;;;;;;;30.63;29.02;98854.69;4998350;28;20698;-69
2022/07/19 11:10:37;;;;;;;5.78;1.13;;;;;;;30.80;29.57;98853.09;4999121;28;20190;-69
2022/07/19 11:13:03;;;;;;;1.48;1.35;;;;;;;31.04;28.64;98852.19;5016303;28;20186;-69
2022/07/19 11:15:28;;;;;;;1.88;0.93;;;;;;;30.80;28.82;98847.75;4991190;28;20592;-70
2022/07/19 11:18:04;;;;;;;1.35;1.08;;;;;;;30.90;29.34;98840.00;4983026;28;20190;-69
2022/07/19 11:20:32;;;;;;;2.03;1.23;;;;;;;30.91;28.34;98835.47;4999580;28;20731;-69
2022/07/19 11:22:59;;;;;;;2.70;1.75;;;;;;;30.92;28.71;98837.09;5004320;28;20209;-69
2022/07/19 11:25:41;;;;;;;2.03;1.17;;;;;;;31.07;28.34;98830.31;5008151;28;20276;-69
2022/07/19 11:28:20;;;;;;;3.95;1.30;;;;;;;31.34;28.44;98820.94;4996038;28;20183;-69
2022/07/19 11:30:45;;;;;;;6.03;1.77;;;;;;;31.34;27.76;98826.31;5001259;28;20269;-69
2022/07/19 11:33:16;;;;;;;3.95;1.40;;;;;;;31.41;27.76;98832.38;5017685;28;20216;-69
2022/07/19 11:35:56;;;;;;;5.28;1.20;;;;;;;31.35;27.54;98827.94;5009034;28;20210;-70
2022/07/19 11:38:22;;;;;;;1.25;1.05;;;;;;;31.82;26.88;98832.41;4996061;28;20694;-69
2022/07/19 11:40:48;;;;;;;2.53;1.30;;;;;;;32.19;27.07;98828.50;5001119;28;20187;-70